createdAt,value
2018-04-07T00:02:11.242Z,3.50
2018-04-07T00:04:39.363Z,3.50
2018-04-07T00:07:06.954Z,3.50
2018-04-07T00:09:34.661Z,3.60
2018-04-07T00:12:02.288Z,3.70
2018-04-07T00:14:29.878Z,3.80
2018-04-07T00:16:57.469Z,3.90
2018-04-07T00:19:25.799Z,3.90
2018-04-07T00:21:53.448Z,3.90
2018-04-07T00:24:21.025Z,3.90
2018-04-07T00:26:48.602Z,3.90
2018-04-07T00:29:16.234Z,3.90
2018-04-07T00:31:43.808Z,3.90
2018-04-07T00:34:11.424Z,4.00
2018-04-07T00:36:39.062Z,4.00
2018-04-07T00:39:07.431Z,4.00
2018-04-07T00:41:35.025Z,4.00
2018-04-07T00:44:03.381Z,3.90
2018-04-07T00:46:30.942Z,3.90
2018-04-07T00:48:59.289Z,3.80
2018-04-07T00:51:26.887Z,3.80
2018-04-07T00:53:55.218Z,3.50
2018-04-07T00:56:22.857Z,3.50
2018-04-07T00:58:50.446Z,3.30
2018-04-07T01:01:18.054Z,3.20
2018-04-07T01:03:45.671Z,3.20
2018-04-07T01:06:13.720Z,3.20
2018-04-07T01:08:41.319Z,3.30
2018-04-07T01:11:08.923Z,3.40
2018-04-07T01:13:36.499Z,3.40
2018-04-07T01:16:04.114Z,3.50
2018-04-07T01:18:32.525Z,3.50
2018-04-07T01:21:00.089Z,3.40
2018-04-07T01:23:27.647Z,3.50
2018-04-07T01:25:55.268Z,3.50
2018-04-07T01:28:22.840Z,3.50
2018-04-07T01:30:50.429Z,3.50
2018-04-07T01:33:18.030Z,3.50
2018-04-07T01:35:45.592Z,3.50
2018-04-07T01:38:13.189Z,3.50
2018-04-07T01:40:40.747Z,3.50
2018-04-07T01:43:08.355Z,3.60
2018-04-07T01:45:35.937Z,3.50
2018-04-07T01:48:04.310Z,3.50
2018-04-07T01:50:32.926Z,3.50
2018-04-07T01:53:00.498Z,3.60
2018-04-07T01:55:28.044Z,3.60
2018-04-07T01:57:55.699Z,3.50
2018-04-07T02:00:23.270Z,3.60
2018-04-07T02:02:50.856Z,3.60
2018-04-07T02:05:18.463Z,3.60
2018-04-07T02:07:46.815Z,3.50
2018-04-07T02:10:14.463Z,3.50
2018-04-07T02:12:42.059Z,3.50
2018-04-07T02:15:10.492Z,3.50
2018-04-07T02:17:38.080Z,3.50
2018-04-07T02:20:05.707Z,3.50
2018-04-07T02:22:33.300Z,3.50
2018-04-07T02:25:00.882Z,3.40
2018-04-07T02:27:29.324Z,3.50
2018-04-07T02:29:56.888Z,3.40
2018-04-07T02:32:24.529Z,3.50
2018-04-07T02:34:52.103Z,3.50
2018-04-07T02:37:19.657Z,3.50
2018-04-07T02:39:47.256Z,3.50
2018-04-07T02:42:15.623Z,3.40
2018-04-07T02:44:44.007Z,3.50
2018-04-07T02:47:12.328Z,3.50
2018-04-07T02:49:39.889Z,3.50
2018-04-07T02:52:07.527Z,3.50
2018-04-07T02:54:35.106Z,3.50
2018-04-07T02:57:02.753Z,3.50
2018-04-07T02:59:30.339Z,3.40
2018-04-07T03:01:57.931Z,3.40
2018-04-07T03:04:25.530Z,3.40
2018-04-07T03:06:53.102Z,3.40
2018-04-07T03:09:20.718Z,3.40
2018-04-07T03:11:49.057Z,3.30
2018-04-07T03:14:16.668Z,3.30
2018-04-07T03:16:45.086Z,3.30
2018-04-07T03:19:12.645Z,3.30
2018-04-07T03:21:40.263Z,3.30
2018-04-07T03:24:08.594Z,3.20
2018-04-07T03:26:36.210Z,3.20
2018-04-07T03:29:03.854Z,3.30
2018-04-07T03:31:32.202Z,3.20
2018-04-07T03:33:59.794Z,3.20
2018-04-07T03:36:28.172Z,3.20
2018-04-07T03:38:56.519Z,3.20
2018-04-07T03:41:24.093Z,3.20
2018-04-07T03:43:51.702Z,3.20
2018-04-07T03:46:19.285Z,3.20
2018-04-07T03:48:46.846Z,3.10
2018-04-07T03:51:14.437Z,3.10
2018-04-07T03:53:42.852Z,3.10
2018-04-07T03:56:10.424Z,3.10
2018-04-07T03:58:37.986Z,3.10
2018-04-07T04:01:05.595Z,3.10
2018-04-07T04:03:33.949Z,3.10
2018-04-07T04:06:11.347Z,3.10
2018-04-07T04:08:38.935Z,3.00
2018-04-07T04:11:06.586Z,3.00
2018-04-07T04:13:34.192Z,3.00
2018-04-07T04:16:01.759Z,3.00
2018-04-07T04:18:29.316Z,3.00
2018-04-07T04:20:56.925Z,3.00
2018-04-07T04:23:24.509Z,3.00
2018-04-07T04:25:52.906Z,3.00
2018-04-07T04:28:20.480Z,2.90
2018-04-07T04:30:48.063Z,2.90
2018-04-07T04:33:15.688Z,3.00
2018-04-07T04:35:43.266Z,3.00
2018-04-07T04:38:10.828Z,3.10
2018-04-07T04:40:38.412Z,3.10
2018-04-07T04:43:05.980Z,3.20
2018-04-07T04:45:33.599Z,3.20
2018-04-07T04:48:01.162Z,3.30
2018-04-07T04:50:28.762Z,3.30
2018-04-07T04:52:56.366Z,3.40
2018-04-07T04:55:23.939Z,3.50
2018-04-07T04:57:51.553Z,3.40
2018-04-07T05:00:19.877Z,3.80
2018-04-07T05:02:47.502Z,3.80
2018-04-07T05:05:15.843Z,4.00
2018-04-07T05:07:43.418Z,4.00
2018-04-07T05:10:11.031Z,4.10
2018-04-07T05:12:38.606Z,4.20
2018-04-07T05:15:06.235Z,4.50
2018-04-07T05:17:34.633Z,4.60
2018-04-07T05:20:02.215Z,4.60
2018-04-07T05:22:29.766Z,4.70
2018-04-07T05:24:57.349Z,4.70
2018-04-07T05:27:25.003Z,4.80
2018-04-07T05:29:52.576Z,4.90
2018-04-07T05:32:20.173Z,4.90
2018-04-07T05:34:47.776Z,5.00
2018-04-07T05:37:15.389Z,4.90
2018-04-07T05:39:42.959Z,5.00
2018-04-07T05:42:10.545Z,5.10
2018-04-07T05:44:38.119Z,5.30
2018-04-07T05:47:05.711Z,5.50
2018-04-07T05:49:34.085Z,6.00
2018-04-07T05:52:02.423Z,6.10
2018-04-07T05:54:29.992Z,6.10
2018-04-07T05:56:58.508Z,6.50
2018-04-07T05:59:26.130Z,6.40
2018-04-07T06:01:53.701Z,6.60
2018-04-07T06:04:21.301Z,6.70
2018-04-07T06:06:48.907Z,7.00
2018-04-07T06:09:16.481Z,7.20
2018-04-07T06:11:44.236Z,7.40
2018-04-07T06:14:11.832Z,7.50
2018-04-07T06:16:40.171Z,7.70
2018-04-07T06:19:07.780Z,7.70
2018-04-07T06:21:35.345Z,7.70
2018-04-07T06:24:02.960Z,7.80
2018-04-07T06:26:30.529Z,8.10
2018-04-07T06:28:58.132Z,8.20
2018-04-07T06:31:25.727Z,8.40
2018-04-07T06:33:53.286Z,8.50
2018-04-07T06:36:20.896Z,8.70
2018-04-07T06:38:48.463Z,8.70
2018-04-07T06:41:16.135Z,8.60
2018-04-07T06:43:43.706Z,9.00
2018-04-07T06:46:11.417Z,9.20
2018-04-07T06:48:39.039Z,8.90
2018-04-07T06:51:06.615Z,8.80
2018-04-07T06:53:34.221Z,9.50
2018-04-07T06:56:01.870Z,9.40
2018-04-07T06:58:29.468Z,9.20
2018-04-07T07:00:57.043Z,9.40
2018-04-07T07:03:24.642Z,9.40
2018-04-07T07:05:52.981Z,9.70
2018-04-07T07:08:20.742Z,9.70
2018-04-07T07:10:48.330Z,9.50
2018-04-07T07:13:16.659Z,9.70
2018-04-07T07:15:44.244Z,9.70
2018-04-07T07:18:11.875Z,9.90
2018-04-07T07:20:39.439Z,10.40
2018-04-07T07:23:07.010Z,10.60
2018-04-07T07:25:34.684Z,10.70
2018-04-07T07:28:02.407Z,10.60
2018-04-07T07:30:30.138Z,10.40
2018-04-07T07:32:58.480Z,10.50
2018-04-07T07:35:26.059Z,10.50
2018-04-07T07:37:53.670Z,10.70
2018-04-07T07:40:21.242Z,11.40
2018-04-07T07:42:48.878Z,11.40
2018-04-07T07:45:16.501Z,11.40
2018-04-07T07:47:44.848Z,11.30
2018-04-07T07:50:12.441Z,11.20
2018-04-07T07:52:40.014Z,11.50
2018-04-07T07:55:08.415Z,11.60
2018-04-07T07:57:36.021Z,11.60
2018-04-07T08:00:03.622Z,11.70
2018-04-07T08:02:32.017Z,11.70
2018-04-07T08:04:59.588Z,11.70
2018-04-07T08:07:27.166Z,11.40
2018-04-07T08:09:54.855Z,11.60
2018-04-07T08:12:23.203Z,11.90
2018-04-07T08:14:50.804Z,11.80
2018-04-07T08:17:19.179Z,11.70
2018-04-07T08:19:47.544Z,11.60
2018-04-07T08:22:15.146Z,11.60
2018-04-07T08:24:42.712Z,11.90
2018-04-07T08:27:10.272Z,12.10
2018-04-07T08:29:37.858Z,12.20
2018-04-07T08:32:05.506Z,11.90
2018-04-07T08:34:33.860Z,12.00
2018-04-07T08:37:09.439Z,12.00
2018-04-07T08:39:37.100Z,12.20
2018-04-07T08:42:04.696Z,12.00
2018-04-07T08:44:33.040Z,12.20
2018-04-07T08:47:00.676Z,12.20
2018-04-07T08:49:28.246Z,11.90
2018-04-07T08:51:55.811Z,12.50
2018-04-07T08:54:23.453Z,12.90
2018-04-07T08:56:51.076Z,12.80
2018-04-07T08:59:19.459Z,12.70
2018-04-07T09:01:47.783Z,12.80
2018-04-07T09:04:15.403Z,12.80
2018-04-07T09:06:43.789Z,12.70
2018-04-07T09:09:11.379Z,12.70
2018-04-07T09:11:38.943Z,12.50
2018-04-07T09:14:06.504Z,12.40
2018-04-07T09:16:34.117Z,12.50
2018-04-07T09:19:02.498Z,13.00
2018-04-07T09:21:30.824Z,13.20
2018-04-07T09:23:58.427Z,13.20
2018-04-07T09:26:26.060Z,13.00
2018-04-07T09:28:53.650Z,12.80
2018-04-07T09:31:25.961Z,13.30
2018-04-07T09:33:53.527Z,13.30
2018-04-07T09:36:21.179Z,13.70
2018-04-07T09:38:49.918Z,13.80
2018-04-07T09:41:18.263Z,13.40
2018-04-07T09:43:45.891Z,13.40
2018-04-07T09:46:13.473Z,13.80
2018-04-07T09:48:41.085Z,14.20
2018-04-07T09:51:08.703Z,15.20
2018-04-07T09:53:36.360Z,17.30
2018-04-07T09:56:03.945Z,17.10
2018-04-07T09:58:31.531Z,15.90
2018-04-07T10:01:01.784Z,15.40
2018-04-07T10:03:29.419Z,15.20
2018-04-07T10:05:57.001Z,15.10
2018-04-07T10:08:24.623Z,15.20
2018-04-07T10:10:53.015Z,15.20
2018-04-07T10:13:20.584Z,15.10
2018-04-07T10:15:48.158Z,15.30
2018-04-07T10:18:15.770Z,15.60
2018-04-07T10:20:44.156Z,15.80
2018-04-07T10:23:12.544Z,15.40
2018-04-07T10:25:40.880Z,15.60
2018-04-07T10:28:08.503Z,15.60
2018-04-07T10:30:36.081Z,15.30
2018-04-07T10:33:03.678Z,15.30
2018-04-07T10:35:31.276Z,15.50
2018-04-07T10:37:59.832Z,15.40
2018-04-07T10:40:28.252Z,15.70
2018-04-07T10:42:55.837Z,15.80
2018-04-07T10:45:23.393Z,15.90
2018-04-07T10:47:50.989Z,15.40
2018-04-07T10:50:19.324Z,15.60
2018-04-07T10:52:47.548Z,15.70
2018-04-07T10:55:15.100Z,15.60
2018-04-07T10:57:43.467Z,15.40
2018-04-07T11:00:11.159Z,15.40
2018-04-07T11:02:38.790Z,15.70
2018-04-07T11:05:06.370Z,15.70
2018-04-07T11:07:33.977Z,15.80
2018-04-07T11:10:01.562Z,15.90
2018-04-07T11:12:29.165Z,15.40
2018-04-07T11:14:56.744Z,15.70
2018-04-07T11:17:24.346Z,16.00
2018-04-07T11:19:52.731Z,16.30
2018-04-07T11:22:21.108Z,16.20
2018-04-07T11:24:49.460Z,16.40
2018-04-07T11:27:17.024Z,16.30
2018-04-07T11:29:44.630Z,16.80
2018-04-07T11:32:12.186Z,16.50
2018-04-07T11:34:39.860Z,16.50
2018-04-07T11:37:07.448Z,16.60
2018-04-07T11:39:35.069Z,16.20
2018-04-07T11:42:02.675Z,16.30
2018-04-07T11:44:30.274Z,16.60
2018-04-07T11:46:58.669Z,16.80
2018-04-07T11:49:27.100Z,16.70
2018-04-07T11:51:54.665Z,16.80
2018-04-07T11:54:22.304Z,16.90
2018-04-07T11:56:49.880Z,17.00
2018-04-07T11:59:17.455Z,17.00
2018-04-07T12:01:45.086Z,16.90
2018-04-07T12:04:12.680Z,17.10
2018-04-07T12:06:41.037Z,16.90
2018-04-07T12:09:08.637Z,16.90
2018-04-07T12:11:37.016Z,17.30
2018-04-07T12:14:05.338Z,17.30
2018-04-07T12:16:32.916Z,17.30
2018-04-07T12:19:00.511Z,17.30
2018-04-07T12:21:28.159Z,17.30
2018-04-07T12:23:56.504Z,17.70
2018-04-07T12:26:24.095Z,17.70
2018-04-07T12:28:52.533Z,17.30
2018-04-07T12:31:20.159Z,17.30
2018-04-07T12:33:47.784Z,17.80
2018-04-07T12:36:15.422Z,17.80
2018-04-07T12:38:42.984Z,17.90
2018-04-07T12:41:10.578Z,17.80
2018-04-07T12:43:38.986Z,18.10
2018-04-07T12:46:06.573Z,18.10
2018-04-07T12:48:34.144Z,17.80
2018-04-07T12:51:01.769Z,17.80
2018-04-07T12:53:29.366Z,17.80
2018-04-07T12:55:56.971Z,18.00
2018-04-07T12:58:24.648Z,18.20
2018-04-07T13:00:52.234Z,18.10
2018-04-07T13:03:19.791Z,18.30
2018-04-07T13:05:47.437Z,18.60
2018-04-07T13:08:15.041Z,18.70
2018-04-07T13:10:43.438Z,18.50
2018-04-07T13:13:11.778Z,18.00
2018-04-07T13:15:39.362Z,18.00
2018-04-07T13:18:07.776Z,17.90
2018-04-07T13:20:35.371Z,17.90
2018-04-07T13:23:02.929Z,18.10
2018-04-07T13:25:30.609Z,18.30
2018-04-07T13:27:58.186Z,18.50
2018-04-07T13:30:26.601Z,18.40
2018-04-07T13:32:54.204Z,18.40
2018-04-07T13:35:21.813Z,18.30
2018-04-07T13:37:49.384Z,18.40
2018-04-07T13:40:16.938Z,18.20
2018-04-07T13:42:44.549Z,18.40
2018-04-07T13:45:12.131Z,18.40
2018-04-07T13:47:41.328Z,18.30
2018-04-07T13:50:08.962Z,18.30
2018-04-07T13:52:36.546Z,18.40
2018-04-07T13:55:04.878Z,18.60
2018-04-07T13:57:32.487Z,18.50
2018-04-07T14:00:00.835Z,18.10
2018-04-07T14:02:28.409Z,18.10
2018-04-07T14:04:56.808Z,18.30
2018-04-07T14:07:24.381Z,18.30
2018-04-07T14:09:51.945Z,18.00
2018-04-07T14:12:19.545Z,17.90
2018-04-07T14:14:47.114Z,18.00
2018-04-07T14:17:15.519Z,18.00
2018-04-07T14:19:43.916Z,18.00
2018-04-07T14:22:11.492Z,18.00
2018-04-07T14:24:39.075Z,18.10
2018-04-07T14:27:06.712Z,18.20
2018-04-07T14:29:34.300Z,18.10
2018-04-07T14:32:01.877Z,18.20
2018-04-07T14:34:30.235Z,18.20
2018-04-07T14:36:57.784Z,18.20
2018-04-07T14:39:25.414Z,18.00
2018-04-07T14:41:52.989Z,17.90
2018-04-07T14:44:20.565Z,17.80
2018-04-07T14:46:48.194Z,17.90
2018-04-07T14:49:15.818Z,17.80
2018-04-07T14:51:44.266Z,17.90
2018-04-07T14:54:11.831Z,17.90
2018-04-07T14:56:39.479Z,17.80
2018-04-07T14:59:07.049Z,17.70
2018-04-07T15:01:34.604Z,17.80
2018-04-07T15:04:02.218Z,17.70
2018-04-07T15:06:29.783Z,17.60
2018-04-07T15:08:57.357Z,17.60
2018-04-07T15:11:24.973Z,17.70
2018-04-07T15:13:53.309Z,17.70
2018-04-07T15:16:20.875Z,17.70
2018-04-07T15:18:49.696Z,17.70
2018-04-07T15:21:18.068Z,17.60
2018-04-07T15:23:46.430Z,17.70
2018-04-07T15:26:13.992Z,17.70
2018-04-07T15:28:42.438Z,17.40
2018-04-07T15:31:10.020Z,17.40
2018-04-07T15:33:37.598Z,17.40
2018-04-07T15:36:05.209Z,17.40
2018-04-07T15:38:32.798Z,17.40
2018-04-07T15:41:00.446Z,17.30
2018-04-07T15:43:28.038Z,17.50
2018-04-07T15:45:55.615Z,17.60
2018-04-07T15:48:23.318Z,17.40
2018-04-07T15:50:51.614Z,17.40
2018-04-07T15:53:19.190Z,17.30
2018-04-07T15:55:46.786Z,17.30
2018-04-07T15:58:14.389Z,17.30
2018-04-07T16:00:41.957Z,17.30
2018-04-07T16:03:09.527Z,17.20
2018-04-07T16:05:37.243Z,17.20
2018-04-07T16:08:04.857Z,17.10
2018-04-07T16:10:32.396Z,17.10
2018-04-07T16:13:00.035Z,17.10
2018-04-07T16:15:27.588Z,17.10
2018-04-07T16:17:55.153Z,17.10
2018-04-07T16:20:22.750Z,17.00
2018-04-07T16:22:50.318Z,17.00
2018-04-07T16:25:17.963Z,16.90
2018-04-07T16:27:45.540Z,16.70
2018-04-07T16:30:13.204Z,16.60
2018-04-07T16:32:40.768Z,16.50
2018-04-07T16:35:09.083Z,16.30
2018-04-07T16:37:36.704Z,16.30
2018-04-07T16:40:05.019Z,16.10
2018-04-07T16:42:32.588Z,16.10
2018-04-07T16:45:00.200Z,15.90
2018-04-07T16:47:28.524Z,15.60
2018-04-07T16:49:56.095Z,15.60
2018-04-07T16:52:23.733Z,15.50
2018-04-07T16:54:52.037Z,15.50
2018-04-07T16:57:19.677Z,15.50
2018-04-07T16:59:47.245Z,15.40
2018-04-07T17:02:14.814Z,15.40
2018-04-07T17:04:51.993Z,15.40
2018-04-07T17:07:19.599Z,15.40
2018-04-07T17:09:47.151Z,15.30
2018-04-07T17:12:14.743Z,15.30
2018-04-07T17:14:43.102Z,15.10
2018-04-07T17:17:10.661Z,15.10
2018-04-07T17:19:38.280Z,15.10
2018-04-07T17:22:05.891Z,15.00
2018-04-07T17:24:33.485Z,15.00
2018-04-07T17:27:01.086Z,14.80
2018-04-07T17:29:28.704Z,14.80
2018-04-07T17:31:56.265Z,14.70
2018-04-07T17:34:23.881Z,14.70
2018-04-07T17:36:51.447Z,14.60
2018-04-07T17:39:19.041Z,14.60
2018-04-07T17:41:46.687Z,14.60
2018-04-07T17:44:15.016Z,14.40
2018-04-07T17:46:42.635Z,14.40
2018-04-07T17:49:10.216Z,14.40
2018-04-07T17:51:37.832Z,14.30
2018-04-07T17:54:06.153Z,14.20
2018-04-07T17:56:33.710Z,14.20
2018-04-07T17:59:01.306Z,14.20
2018-04-07T18:01:28.969Z,14.10
2018-04-07T18:03:56.544Z,14.00
2018-04-07T18:06:24.937Z,14.00
2018-04-07T18:08:53.283Z,13.90
2018-04-07T18:11:20.979Z,13.90
2018-04-07T18:13:49.469Z,13.80
2018-04-07T18:16:17.058Z,13.80
2018-04-07T18:18:44.634Z,13.80
2018-04-07T18:21:12.249Z,13.70
2018-04-07T18:23:40.087Z,13.70
2018-04-07T18:26:07.796Z,13.70
2018-04-07T18:28:35.538Z,13.60
2018-04-07T18:31:03.108Z,13.60
2018-04-07T18:33:30.721Z,13.60
2018-04-07T18:35:58.341Z,13.60
2018-04-07T18:38:25.921Z,13.50
2018-04-07T18:40:53.497Z,13.50
2018-04-07T18:43:21.067Z,13.40
2018-04-07T18:45:48.687Z,13.30
2018-04-07T18:48:16.312Z,13.30
2018-04-07T18:50:43.956Z,13.30
2018-04-07T18:56:09.678Z,13.20
2018-04-07T18:58:37.290Z,13.20
2018-04-07T19:01:04.905Z,13.10
2018-04-07T19:03:33.172Z,13.10
2018-04-07T19:06:00.777Z,13.10
2018-04-07T19:08:28.366Z,13.00
2018-04-07T19:10:55.978Z,12.90
2018-04-07T19:13:24.333Z,12.90
2018-04-07T19:15:51.946Z,12.80
2018-04-07T19:18:19.528Z,12.80
2018-04-07T19:20:47.096Z,12.80
2018-04-07T19:23:14.701Z,12.80
2018-04-07T19:25:43.039Z,12.80
2018-04-07T19:28:10.651Z,12.70
2018-04-07T19:30:39.335Z,12.60
2018-04-07T19:33:06.926Z,12.60
2018-04-07T19:35:34.515Z,12.60
2018-04-07T19:38:02.150Z,12.50
2018-04-07T19:40:29.734Z,12.50
2018-04-07T19:42:57.334Z,12.50
2018-04-07T19:45:25.702Z,12.50
2018-04-07T19:47:54.070Z,12.40
2018-04-07T19:50:21.682Z,12.40
2018-04-07T19:52:50.093Z,12.40
2018-04-07T19:55:17.727Z,12.40
2018-04-07T19:57:45.330Z,12.40
2018-04-07T20:00:13.745Z,12.30
2018-04-07T20:02:41.328Z,12.30
2018-04-07T20:05:08.895Z,12.30
2018-04-07T20:07:36.540Z,12.30
2018-04-07T20:10:04.125Z,12.30
2018-04-07T20:12:31.700Z,12.30
2018-04-07T20:14:59.415Z,12.20
2018-04-07T20:17:27.022Z,12.20
2018-04-07T20:19:54.614Z,12.20
2018-04-07T20:22:22.295Z,12.20
2018-04-07T20:24:49.935Z,12.10
2018-04-07T20:27:17.524Z,12.10
2018-04-07T20:29:45.142Z,12.10
2018-04-07T20:32:13.543Z,12.00
2018-04-07T20:34:41.172Z,12.00
2018-04-07T20:37:09.606Z,11.90
2018-04-07T20:39:37.172Z,11.80
2018-04-07T20:42:16.605Z,11.90
2018-04-07T20:44:44.184Z,11.90
2018-04-07T20:47:12.554Z,11.80
2018-04-07T20:49:40.109Z,11.90
2018-04-07T20:52:07.683Z,11.90
2018-04-07T20:54:35.300Z,11.90
2018-04-07T20:57:02.859Z,11.90
2018-04-07T20:59:31.397Z,11.80
2018-04-07T21:01:58.980Z,11.90
2018-04-07T21:04:27.338Z,11.80
2018-04-07T21:06:55.695Z,11.80
2018-04-07T21:09:23.293Z,11.80
2018-04-07T21:11:51.667Z,11.70
2018-04-07T21:14:20.001Z,11.70
2018-04-07T21:16:47.640Z,11.70
2018-04-07T21:19:15.237Z,11.70
2018-04-07T21:21:42.858Z,11.70
2018-04-07T21:24:10.436Z,11.70
2018-04-07T21:26:38.001Z,11.70
2018-04-07T21:29:05.619Z,11.60
2018-04-07T21:31:33.224Z,11.70
2018-04-07T21:34:00.822Z,11.70
2018-04-07T21:36:29.321Z,11.70
2018-04-07T21:38:56.903Z,11.70
2018-04-07T21:41:24.509Z,11.70
2018-04-07T21:43:52.945Z,11.70
2018-04-07T21:46:20.518Z,11.60
2018-04-07T21:48:48.110Z,11.60
2018-04-07T21:51:16.532Z,11.60
2018-04-07T21:53:44.091Z,11.60
2018-04-07T21:56:11.662Z,11.60
2018-04-07T21:58:39.326Z,11.60
2018-04-07T22:01:07.018Z,11.60
2018-04-07T22:03:34.583Z,11.60
2018-04-07T22:06:02.221Z,11.50
2018-04-07T22:08:29.800Z,11.50
2018-04-07T22:10:57.425Z,11.50
2018-04-07T22:13:25.006Z,11.40
2018-04-07T22:15:52.613Z,11.40
2018-04-07T22:18:20.199Z,11.40
2018-04-07T22:20:47.779Z,11.40
2018-04-07T22:23:15.379Z,11.30
2018-04-07T22:25:43.819Z,11.30
2018-04-07T22:28:11.417Z,11.30
2018-04-07T22:30:39.761Z,11.20
2018-04-07T22:33:07.369Z,11.20
2018-04-07T22:35:34.963Z,11.20
2018-04-07T22:38:02.594Z,11.20
2018-04-07T22:40:30.180Z,11.10
2018-04-07T22:42:57.750Z,11.10
2018-04-07T22:45:25.370Z,11.10
2018-04-07T22:47:52.964Z,11.10
2018-04-07T22:50:20.523Z,11.10
2018-04-07T22:52:48.748Z,11.00
2018-04-07T22:55:16.354Z,11.00
2018-04-07T22:57:43.955Z,11.00
2018-04-07T23:00:12.337Z,11.00
2018-04-07T23:02:40.678Z,10.90
2018-04-07T23:05:08.312Z,10.90
2018-04-07T23:07:35.898Z,10.80
2018-04-07T23:10:03.484Z,10.90
2018-04-07T23:12:31.092Z,10.90
2018-04-07T23:14:58.793Z,10.90
2018-04-07T23:17:26.469Z,10.80
2018-04-07T23:19:54.849Z,10.70
2018-04-07T23:22:23.194Z,10.80
2018-04-07T23:24:50.785Z,10.70
2018-04-07T23:27:19.206Z,10.70
2018-04-07T23:29:46.810Z,10.70
2018-04-07T23:32:14.389Z,10.70
2018-04-07T23:34:42.814Z,10.70
2018-04-07T23:37:10.394Z,10.70
2018-04-07T23:39:37.971Z,10.70
2018-04-07T23:42:05.582Z,10.60
2018-04-07T23:44:33.160Z,10.60
2018-04-07T23:47:00.728Z,10.60
2018-04-07T23:49:28.367Z,10.60
2018-04-07T23:51:55.944Z,10.60
2018-04-07T23:54:23.499Z,10.60
2018-04-07T23:56:51.093Z,10.60
2018-04-07T23:59:18.680Z,10.50
